Time;durP1;ratioP1;P1;durP2;ratioP2;P2;SDS_P1;SDS_P2;PMS_P1;PMS_P2;Temp;Humidity;BMP_temperature;BMP_pressure;BME280_temperature;BME280_humidity;BME280_pressure;Samples;Min_cycle;Max_cycle;Signal;HPM_P1;HPM_P2
2024/04/25 00:00:34;;;;;;;0.95;0.95;;;;;;;16.03;38.76;99324.50;7394774;19;20035;-62
2024/04/25 00:03:00;;;;;;;0.70;0.70;;;;;;;16.06;38.97;99315.03;7398770;19;20022;-62
2024/04/25 00:05:26;;;;;;;0.70;0.70;;;;;;;16.01;39.12;99315.84;7395656;19;20363;-62
2024/04/25 00:07:52;;;;;;;4.10;0.63;;;;;;;15.77;39.08;99324.25;7394578;19;20018;-62
2024/04/25 00:10:18;;;;;;;0.60;0.50;;;;;;;15.82;39.39;99320.63;7394487;19;20010;-62
2024/04/25 00:12:44;;;;;;;0.70;0.70;;;;;;;15.78;39.12;99309.69;7397572;19;20021;-62
2024/04/25 00:15:10;;;;;;;0.73;0.65;;;;;;;15.81;39.12;99303.00;7399001;19;20014;-62
2024/04/25 00:17:37;;;;;;;2.28;1.02;;;;;;;15.83;39.05;99302.50;7392919;19;20014;-62
2024/04/25 00:20:04;;;;;;;0.50;0.50;;;;;;;15.77;39.32;99296.16;7395717;19;20011;-63
2024/04/25 00:22:31;;;;;;;2.20;1.75;;;;;;;15.71;39.32;99293.41;7396734;19;20026;-62
2024/04/25 00:24:57;;;;;;;3.67;1.75;;;;;;;15.69;39.26;99284.75;7394247;19;20489;-62
2024/04/25 00:27:23;;;;;;;10.20;2.42;;;;;;;15.57;39.13;99282.59;7394341;19;20343;-62
2024/04/25 00:29:49;;;;;;;1.67;1.58;;;;;;;15.63;39.22;99269.25;7395938;19;20034;-62
2024/04/25 00:32:15;;;;;;;1.50;0.88;;;;;;;15.58;39.41;99270.06;7397676;19;20355;-62
2024/04/25 00:34:41;;;;;;;1.67;1.58;;;;;;;15.48;39.09;99260.47;7391552;19;20043;-62
2024/04/25 00:37:07;;;;;;;11.50;1.13;;;;;;;15.35;39.17;99257.47;7398792;19;20014;-62
2024/04/25 00:39:33;;;;;;;0.95;0.93;;;;;;;15.30;39.53;99250.63;7393806;19;20015;-62
2024/04/25 00:41:59;;;;;;;10.60;0.90;;;;;;;15.39;39.21;99252.34;7395730;19;20010;-62
2024/04/25 00:44:25;;;;;;;1.65;1.65;;;;;;;15.32;39.20;99252.91;7394340;19;20074;-62
2024/04/25 00:46:53;;;;;;;0.30;0.30;;;;;;;15.35;39.26;99243.44;7393505;19;20056;-62
2024/04/25 00:49:20;;;;;;;1.38;1.27;;;;;;;15.33;39.59;99238.38;7392793;19;20021;-62
2024/04/25 00:51:47;;;;;;;0.60;0.60;;;;;;;15.68;39.06;99238.31;7394121;19;20011;-62
2024/04/25 00:54:13;;;;;;;0.85;0.85;;;;;;;15.19;39.54;99234.66;7393771;19;20045;-62
2024/04/25 00:56:41;;;;;;;0.60;0.60;;;;;;;15.68;38.78;99232.69;7394937;19;20006;-62
2024/04/25 00:59:08;;;;;;;0.68;0.60;;;;;;;16.13;38.15;99218.19;7393353;19;20457;-63
2024/04/25 01:01:37;;;;;;;1.33;1.23;;;;;;;16.09;38.31;99221.25;7393625;19;20112;-62
2024/04/25 01:04:05;;;;;;;0.95;0.95;;;;;;;16.08;38.26;99219.00;7392602;19;20014;-62
2024/04/25 01:06:33;;;;;;;0.75;0.75;;;;;;;15.60;38.62;99212.13;7396455;19;20018;-62
2024/04/25 01:08:59;;;;;;;1.10;1.10;;;;;;;15.37;39.31;99204.41;7391874;19;20392;-62
2024/04/25 01:11:27;;;;;;;5.43;1.50;;;;;;;15.43;38.87;99211.53;7392057;19;20010;-64
2024/04/25 01:13:54;;;;;;;0.55;0.55;;;;;;;15.17;39.23;99203.56;7395541;19;20570;-62
2024/04/25 01:16:20;;;;;;;0.60;0.60;;;;;;;15.04;39.25;99205.44;7390674;19;20153;-62
2024/04/25 01:18:46;;;;;;;1.63;0.70;;;;;;;15.00;39.48;99197.34;7392784;19;20054;-62
2024/04/25 01:21:13;;;;;;;0.88;0.77;;;;;;;15.00;39.80;99191.72;7392731;19;20015;-63
2024/04/25 01:23:42;;;;;;;1.17;0.80;;;;;;;14.95;39.63;99188.94;7395541;19;20347;-63
2024/04/25 01:26:09;;;;;;;2.08;1.55;;;;;;;14.80;39.44;99178.09;7392466;19;20014;-62
2024/04/25 01:28:37;;;;;;;0.50;0.50;;;;;;;14.71;39.74;99181.22;7390487;19;20031;-62
2024/04/25 01:31:04;;;;;;;10.25;1.30;;;;;;;14.71;39.72;99170.00;7391227;19;20018;-62
2024/04/25 01:33:34;;;;;;;0.90;0.90;;;;;;;14.77;39.72;99173.53;7393970;19;20007;-63
2024/04/25 01:36:01;;;;;;;0.90;0.90;;;;;;;14.65;39.79;99166.50;7389737;19;20025;-62
2024/04/25 01:38:27;;;;;;;3.13;1.30;;;;;;;14.81;39.82;99160.00;7393266;19;20474;-62
2024/04/25 01:40:53;;;;;;;4.40;1.38;;;;;;;14.72;39.71;99149.13;7393053;19;20030;-62
2024/04/25 01:43:19;;;;;;;7.72;1.20;;;;;;;14.65;40.14;99132.88;7394653;19;20014;-62
2024/04/25 01:45:45;;;;;;;4.40;1.48;;;;;;;14.63;39.97;99129.81;7393169;19;20070;-62
2024/04/25 01:48:11;;;;;;;1.33;1.20;;;;;;;14.61;39.92;99132.38;7390939;19;20021;-62
2024/04/25 01:50:38;;;;;;;2.17;1.27;;;;;;;14.62;39.83;99121.94;7392366;19;20350;-63
2024/04/25 01:53:04;;;;;;;1.95;1.35;;;;;;;14.55;40.13;99131.66;7391249;19;20015;-62
2024/04/25 01:55:30;;;;;;;3.03;1.42;;;;;;;15.08;39.35;99121.78;7394582;19;20014;-63
2024/04/25 01:57:57;;;;;;;1.10;1.10;;;;;;;15.38;39.54;99108.47;7391350;19;20018;-62
2024/04/25 02:00:23;;;;;;;0.75;0.75;;;;;;;15.27;39.00;99108.59;7391448;19;20016;-62
2024/04/25 02:02:49;;;;;;;0.95;0.90;;;;;;;14.98;39.48;99098.94;7386662;19;20014;-55
2024/04/25 02:05:16;;;;;;;1.95;0.80;;;;;;;14.89;39.42;99096.47;7391631;19;20011;-55
2024/04/25 02:07:42;;;;;;;1.10;1.10;;;;;;;14.84;39.90;99083.25;7394838;19;20034;-55
2024/04/25 02:10:09;;;;;;;2.40;1.45;;;;;;;14.83;39.99;99086.59;7388993;19;20011;-55
2024/04/25 02:12:35;;;;;;;0.82;0.82;;;;;;;14.73;39.97;99077.00;7390039;19;20066;-55
2024/04/25 02:15:01;;;;;;;1.75;1.67;;;;;;;14.77;40.05;99072.63;7390104;19;20018;-56
2024/04/25 02:17:28;;;;;;;2.40;1.65;;;;;;;14.62;40.48;99072.25;7392410;19;20010;-55
2024/04/25 02:19:54;;;;;;;0.22;0.22;;;;;;;14.61;40.51;99067.16;7395456;19;20036;-55
2024/04/25 02:27:32;;;;;;;1.17;0.90;;;;;;;14.45;40.33;99054.81;7391474;19;20090;-55
2024/04/25 02:29:58;;;;;;;0.95;0.95;;;;;;;14.46;40.91;99047.94;7395449;19;20034;-55
2024/04/25 02:32:25;;;;;;;0.70;0.70;;;;;;;14.69;40.98;99046.47;7391746;19;20014;-55
2024/04/25 02:34:51;;;;;;;7.28;1.27;;;;;;;14.65;40.79;99037.56;7391731;19;20006;-55
2024/04/25 02:37:17;;;;;;;1.10;1.10;;;;;;;14.70;40.51;99028.38;7396331;19;20451;-55
2024/04/25 02:39:44;;;;;;;1.27;1.17;;;;;;;14.93;40.43;99018.44;7394628;19;20033;-55
2024/04/25 02:42:10;;;;;;;7.03;1.17;;;;;;;14.99;40.50;99015.56;7392011;19;20380;-55
2024/04/25 02:44:36;;;;;;;0.85;0.85;;;;;;;15.22;40.18;99004.88;7388979;19;20561;-55
2024/04/25 02:47:03;;;;;;;1.08;0.82;;;;;;;15.27;40.35;99018.81;7390998;19;20007;-55
2024/04/25 02:49:29;;;;;;;1.55;1.45;;;;;;;15.02;40.56;99015.28;7393632;19;20019;-55
2024/04/25 02:51:56;;;;;;;0.90;0.90;;;;;;;14.83;41.31;99008.88;7391544;19;20039;-55
2024/04/25 02:54:22;;;;;;;0.77;0.73;;;;;;;14.80;41.21;99009.91;7391206;19;20015;-55
2024/04/25 02:56:48;;;;;;;2.20;2.00;;;;;;;14.81;41.15;99003.00;7391200;19;20066;-55
2024/04/25 02:59:15;;;;;;;1.95;1.45;;;;;;;14.74;41.40;98995.19;7391838;19;20355;-55
2024/04/25 03:01:41;;;;;;;1.23;1.13;;;;;;;14.76;41.02;98991.88;7393656;19;20372;-55
2024/04/25 03:04:08;;;;;;;0.85;0.85;;;;;;;14.90;40.99;98974.63;7391113;19;20014;-55
2024/04/25 03:06:35;;;;;;;0.70;0.70;;;;;;;14.92;41.14;98965.72;7393496;19;20091;-55
2024/04/25 03:09:01;;;;;;;1.20;0.95;;;;;;;14.94;41.28;98957.53;7391399;19;20052;-55
2024/04/25 03:11:28;;;;;;;0.90;0.90;;;;;;;15.03;41.43;98954.34;7390744;19;20030;-55
2024/04/25 03:13:55;;;;;;;1.25;1.25;;;;;;;15.09;41.16;98963.47;7394933;19;20010;-55
2024/04/25 03:16:22;;;;;;;3.13;1.58;;;;;;;14.66;41.60;98960.63;7386944;19;20031;-55
2024/04/25 03:18:49;;;;;;;1.25;1.15;;;;;;;14.61;42.04;98957.88;7390445;19;20013;-54
2024/04/25 03:21:17;;;;;;;2.47;1.55;;;;;;;14.57;42.28;98963.03;7390086;19;20025;-55
2024/04/25 03:23:44;;;;;;;0.50;0.50;;;;;;;14.56;42.42;98956.66;7391215;19;20024;-55
2024/04/25 03:26:10;;;;;;;1.35;1.13;;;;;;;14.73;42.39;98943.22;7391071;19;20029;-55
2024/04/25 03:28:37;;;;;;;5.22;1.60;;;;;;;14.79;41.96;98940.38;7390525;19;20348;-55
2024/04/25 03:31:03;;;;;;;10.95;1.75;;;;;;;14.75;42.34;98937.84;7391366;19;20070;-55
2024/04/25 03:33:30;;;;;;;0.95;0.93;;;;;;;14.60;42.67;98920.69;7391729;19;20011;-55
2024/04/25 03:35:56;;;;;;;2.13;1.00;;;;;;;14.67;42.41;98928.50;7389674;19;20026;-54
2024/04/25 03:38:22;;;;;;;0.95;0.95;;;;;;;14.66;42.47;98937.47;7391351;19;20081;-55
2024/04/25 03:40:49;;;;;;;0.70;0.70;;;;;;;14.69;42.80;98930.78;7394162;19;20017;-55
2024/04/25 03:43:15;;;;;;;1.38;0.90;;;;;;;14.80;42.42;98917.41;7389831;19;20022;-55
2024/04/25 03:45:41;;;;;;;0.70;0.70;;;;;;;14.85;42.77;98916.59;7389943;19;20086;-55
2024/04/25 03:48:08;;;;;;;19.40;1.73;;;;;;;14.85;42.63;98905.38;7390053;19;20017;-55
2024/04/25 03:50:34;;;;;;;1.95;1.67;;;;;;;14.97;42.92;98911.59;7389531;19;20040;-55
2024/04/25 03:53:01;;;;;;;0.77;0.70;;;;;;;15.03;42.77;98903.88;7395035;19;20401;-55
2024/04/25 03:55:27;;;;;;;7.00;1.52;;;;;;;15.06;42.79;98895.19;7398544;19;20011;-54
2024/04/25 03:57:54;;;;;;;1.73;1.08;;;;;;;15.08;42.86;98889.03;7398257;19;20018;-55
2024/04/25 04:00:20;;;;;;;0.50;0.50;;;;;;;15.35;42.50;98884.34;7397480;19;20015;-55
2024/04/25 04:02:47;;;;;;;1.20;1.15;;;;;;;15.59;41.92;98881.47;7395555;19;20003;-55
2024/04/25 04:05:14;;;;;;;0.50;0.50;;;;;;;15.59;42.27;98878.66;7397693;19;20026;-55
2024/04/25 04:07:44;;;;;;;15.82;1.48;;;;;;;14.50;43.33;98880.31;7397527;19;20031;-55
2024/04/25 04:10:10;;;;;;;1.02;1.02;;;;;;;14.31;43.82;98871.09;7397040;19;20010;-55
2024/04/25 04:12:37;;;;;;;0.80;0.80;;;;;;;14.29;43.93;98870.88;7394981;19;20014;-55
2024/04/25 04:15:05;;;;;;;3.22;1.95;;;;;;;14.27;44.01;98868.53;7399908;19;20468;-55
2024/04/25 04:17:32;;;;;;;1.58;0.65;;;;;;;14.15;44.68;98866.38;7396473;19;20552;-55
2024/04/25 04:19:59;;;;;;;0.60;0.60;;;;;;;14.21;44.55;98864.28;7396550;19;20014;-55
2024/04/25 04:22:25;;;;;;;1.83;1.10;;;;;;;14.27;44.98;98862.94;7396217;19;20017;-55
2024/04/25 04:24:52;;;;;;;0.95;0.95;;;;;;;14.37;44.79;98854.97;7400982;19;20014;-55
2024/04/25 04:27:18;;;;;;;1.75;1.30;;;;;;;14.49;44.58;98850.75;7396452;19;20074;-55
2024/04/25 04:29:44;;;;;;;1.65;1.02;;;;;;;14.56;44.61;98850.19;7396968;19;20015;-58
2024/04/25 04:38:11;;;;;;;0.82;0.82;;;;;;;14.66;44.88;98842.19;7392697;19;20018;-56
2024/04/25 04:40:37;;;;;;;1.38;1.13;;;;;;;14.61;45.15;98843.00;7392705;19;20010;-57
2024/04/25 04:43:03;;;;;;;1.50;0.80;;;;;;;14.69;45.44;98835.50;7391369;19;20417;-57
2024/04/25 04:45:29;;;;;;;5.00;1.42;;;;;;;14.86;44.83;98839.63;7391758;19;20425;-57
2024/04/25 04:47:55;;;;;;;17.15;1.33;;;;;;;14.82;45.14;98836.34;7393118;19;20130;-56
2024/04/25 04:50:22;;;;;;;0.77;0.52;;;;;;;14.73;45.66;98825.50;7392444;19;20019;-57
2024/04/25 04:52:48;;;;;;;0.80;0.50;;;;;;;14.98;45.51;98821.38;7391490;19;20362;-57
2024/04/25 04:55:14;;;;;;;5.15;0.88;;;;;;;14.75;45.39;98822.94;7393004;19;20015;-57
2024/04/25 04:57:40;;;;;;;3.28;1.58;;;;;;;14.75;45.70;98811.72;7392806;19;20014;-57
2024/04/25 05:00:07;;;;;;;0.88;0.88;;;;;;;14.65;46.08;98807.78;7394977;19;20121;-57
2024/04/25 05:02:33;;;;;;;0.85;0.85;;;;;;;14.54;46.21;98813.53;7393257;19;20015;-57
2024/04/25 05:04:59;;;;;;;0.60;0.60;;;;;;;14.55;46.06;98803.84;7391374;19;20014;-57
2024/04/25 05:07:25;;;;;;;1.00;1.00;;;;;;;15.24;44.89;98811.56;7396877;19;20096;-57
2024/04/25 05:09:52;;;;;;;0.43;0.35;;;;;;;15.43;45.12;98809.47;7394071;19;20026;-57
2024/04/25 05:12:18;;;;;;;5.47;1.70;;;;;;;14.90;45.59;98802.88;7393510;19;20015;-57
2024/04/25 05:14:44;;;;;;;1.20;0.85;;;;;;;14.87;46.13;98801.13;7391865;19;20395;-57
2024/04/25 05:17:10;;;;;;;0.82;0.80;;;;;;;14.82;45.99;98793.53;7390742;19;20006;-57
2024/04/25 05:19:37;;;;;;;2.33;1.42;;;;;;;15.00;46.07;98787.94;7397153;19;20066;-57
2024/04/25 05:22:03;;;;;;;0.93;0.70;;;;;;;15.12;46.34;98783.69;7394572;19;20043;-57
2024/04/25 05:24:29;;;;;;;3.13;1.63;;;;;;;15.09;46.26;98778.38;7394510;19;20022;-57
2024/04/25 05:26:55;;;;;;;1.90;1.60;;;;;;;15.29;46.65;98768.66;7392570;19;20472;-57
2024/04/25 05:29:21;;;;;;;3.75;1.77;;;;;;;15.44;46.49;98771.75;7393661;19;20010;-57
2024/04/25 05:31:47;;;;;;;4.97;3.22;;;;;;;15.64;46.17;98760.69;7397592;19;20088;-57
2024/04/25 05:34:13;;;;;;;7.97;3.30;;;;;;;15.69;46.34;98759.06;7392742;19;20018;-57
2024/04/25 05:36:39;;;;;;;4.38;2.63;;;;;;;15.68;46.30;98761.09;7393800;19;20509;-57
2024/04/25 05:39:06;;;;;;;2.15;2.05;;;;;;;15.74;46.91;98763.84;7393662;19;20057;-57
2024/04/25 05:41:32;;;;;;;4.65;2.10;;;;;;;15.97;46.94;98759.31;7397012;19;20017;-57
2024/04/25 05:43:58;;;;;;;4.78;1.52;;;;;;;16.00;46.64;98757.50;7391671;19;20011;-57
2024/04/25 05:46:25;;;;;;;10.00;2.75;;;;;;;16.01;47.03;98748.50;7393787;19;20019;-57
2024/04/25 05:48:52;;;;;;;2.92;1.58;;;;;;;16.08;46.96;98752.72;7391631;19;20367;-57
2024/04/25 05:51:18;;;;;;;4.55;1.42;;;;;;;16.18;47.52;98748.94;7392353;19;20098;-57
2024/04/25 05:53:44;;;;;;;3.22;2.47;;;;;;;16.26;47.77;98741.41;7392195;19;20042;-57
2024/04/25 05:56:10;;;;;;;4.43;2.22;;;;;;;16.38;47.40;98742.66;7395102;19;20392;-57
2024/04/25 05:58:36;;;;;;;7.57;3.20;;;;;;;16.92;47.17;98744.06;7392560;19;20014;-57
2024/04/25 06:01:03;;;;;;;2.47;2.22;;;;;;;16.67;47.47;98746.44;7390837;19;20062;-58
2024/04/25 06:03:29;;;;;;;5.65;2.50;;;;;;;16.77;47.56;98743.91;7395410;19;20021;-58
2024/04/25 06:05:55;;;;;;;2.45;1.95;;;;;;;17.10;47.18;98737.53;7393626;19;20324;-57
2024/04/25 06:08:21;;;;;;;1.48;1.38;;;;;;;17.01;48.09;98729.56;7392484;19;20018;-57
2024/04/25 06:10:48;;;;;;;3.67;2.13;;;;;;;16.96;48.06;98730.44;7389768;19;20018;-57
2024/04/25 06:13:14;;;;;;;5.55;1.45;;;;;;;17.01;48.40;98721.13;7390943;19;20017;-57
2024/04/25 06:15:40;;;;;;;1.75;1.65;;;;;;;17.72;47.65;98720.63;7393770;19;20002;-57
2024/04/25 06:18:07;;;;;;;2.50;1.83;;;;;;;17.52;48.19;98727.81;7390489;19;20052;-57
2024/04/25 06:20:33;;;;;;;1.20;1.17;;;;;;;17.59;48.25;98720.72;7390880;19;20014;-57
2024/04/25 06:23:00;;;;;;;2.80;1.17;;;;;;;17.42;48.85;98712.69;7392384;19;20009;-58
2024/04/25 06:25:26;;;;;;;1.13;1.13;;;;;;;17.60;48.65;98723.00;7389564;19;20011;-58
2024/04/25 06:27:54;;;;;;;3.28;0.98;;;;;;;17.71;48.57;98705.06;7391177;19;20041;-58
2024/04/25 06:30:20;;;;;;;2.28;1.08;;;;;;;18.31;47.51;98704.66;7390624;19;20046;-57
2024/04/25 06:32:46;;;;;;;8.23;0.98;;;;;;;18.12;48.09;98700.06;7389733;19;20477;-58
2024/04/25 06:35:12;;;;;;;0.50;0.50;;;;;;;18.70;47.31;98696.59;7391298;19;20307;-58
2024/04/25 06:37:39;;;;;;;0.77;0.77;;;;;;;19.24;45.85;98692.53;7394808;19;20011;-58
2024/04/25 06:40:05;;;;;;;1.48;0.95;;;;;;;20.08;44.58;98679.88;7391724;19;20010;-57
2024/04/25 06:42:32;;;;;;;6.53;0.88;;;;;;;20.50;44.54;98687.84;7392567;19;20014;-57
2024/04/25 06:44:58;;;;;;;1.17;1.17;;;;;;;19.87;45.24;98684.25;7390066;19;20049;-58
2024/04/25 06:47:24;;;;;;;1.50;1.45;;;;;;;19.59;45.34;98676.75;7388237;19;20362;-58
2024/04/25 06:49:50;;;;;;;0.70;0.70;;;;;;;19.59;45.56;98682.41;7389127;19;20014;-57
2024/04/25 06:52:16;;;;;;;1.95;1.55;;;;;;;19.63;45.22;98677.91;7391308;19;20017;-58
2024/04/25 06:54:43;;;;;;;4.30;0.80;;;;;;;19.64;45.88;98685.03;7391562;19;20070;-58
2024/04/25 06:57:09;;;;;;;4.03;1.20;;;;;;;19.78;45.71;98676.34;7390562;19;20018;-58
2024/04/25 06:59:35;;;;;;;1.40;1.30;;;;;;;19.92;45.33;98686.13;7390598;19;20029;-58
2024/04/25 07:02:06;;;;;;;1.15;0.98;;;;;;;20.16;44.79;98677.03;7392268;19;20459;-58
2024/04/25 07:04:32;;;;;;;;;;;;;;;20.36;44.18;98667.53;7391224;19;20097;-58
2024/04/25 07:06:58;;;;;;;4.60;1.10;;;;;;;21.19;43.39;98652.94;7392573;19;19919;-58
2024/04/25 07:09:24;;;;;;;1.95;1.75;;;;;;;21.25;43.39;98664.78;7391146;19;20010;-58
2024/04/25 07:11:50;;;;;;;0.63;0.63;;;;;;;21.26;43.26;98657.06;7389625;19;20018;-58
2024/04/25 07:14:16;;;;;;;0.90;0.65;;;;;;;21.31;43.12;98661.75;7390421;19;20046;-58
2024/04/25 07:16:42;;;;;;;0.43;0.43;;;;;;;21.36;43.22;98653.00;7385770;19;20034;-58
2024/04/25 07:19:09;;;;;;;0.70;0.70;;;;;;;21.18;43.21;98650.69;7388352;19;20022;-58
2024/04/25 07:21:35;;;;;;;0.68;0.68;;;;;;;21.17;43.22;98646.34;7389958;19;20011;-58
2024/04/25 07:24:03;;;;;;;2.40;1.50;;;;;;;21.23;42.79;98638.38;7387595;19;20011;-58
2024/04/25 07:26:29;;;;;;;1.27;1.17;;;;;;;21.52;42.96;98642.28;7390002;19;20077;-58
2024/04/25 07:28:56;;;;;;;0.95;0.95;;;;;;;21.70;43.49;98632.50;7395337;19;20355;-58
2024/04/25 07:31:22;;;;;;;2.95;1.88;;;;;;;21.29;44.17;98628.31;7396921;19;20336;-58
2024/04/25 07:33:48;;;;;;;1.25;1.15;;;;;;;21.25;44.36;98630.03;7397235;19;20015;-58
2024/04/25 07:36:23;;;;;;;0.95;0.95;;;;;;;21.67;43.69;98625.13;7396008;19;20359;-59
2024/04/25 07:38:49;;;;;;;23.67;1.95;;;;;;;22.30;43.53;98629.00;7396203;19;20070;-59
2024/04/25 07:41:16;;;;;;;2.67;0.95;;;;;;;22.29;43.00;98627.47;7396241;19;20074;-59
2024/04/25 07:43:42;;;;;;;0.98;0.98;;;;;;;22.14;42.59;98622.00;7396458;19;20090;-59
2024/04/25 07:46:09;;;;;;;5.43;0.88;;;;;;;22.04;42.10;98618.34;7396553;19;20010;-59
2024/04/25 07:48:36;;;;;;;1.40;0.90;;;;;;;21.32;42.66;98613.00;7394873;19;20021;-59
2024/04/25 07:51:03;;;;;;;2.60;1.08;;;;;;;21.07;42.86;98626.44;7397290;19;20189;-58
2024/04/25 07:53:29;;;;;;;2.47;1.05;;;;;;;20.96;42.83;98627.59;7396550;19;20010;-58
2024/04/25 07:55:55;;;;;;;0.70;0.70;;;;;;;20.95;43.05;98622.50;7398545;19;20014;-59
2024/04/25 07:58:21;;;;;;;3.85;0.80;;;;;;;20.83;42.63;98619.41;7395270;19;20011;-58
2024/04/25 08:00:49;;;;;;;0.65;0.65;;;;;;;20.79;42.59;98630.34;7395634;19;20110;-59
2024/04/25 08:03:15;;;;;;;1.70;1.23;;;;;;;20.83;43.09;98625.06;7396626;19;20017;-59
2024/04/25 08:05:41;;;;;;;2.45;1.23;;;;;;;20.90;42.96;98624.25;7397052;19;20078;-59
2024/04/25 08:08:07;;;;;;;1.88;0.73;;;;;;;20.76;43.40;98620.19;7396342;19;20020;-59
2024/04/25 08:10:34;;;;;;;2.85;1.15;;;;;;;20.82;43.65;98609.41;7395884;19;20406;-59
2024/04/25 08:13:01;;;;;;;16.13;2.13;;;;;;;20.98;43.81;98602.31;7395490;19;20010;-59
2024/04/25 08:15:27;;;;;;;1.38;0.80;;;;;;;21.20;44.04;98611.22;7394535;19;20047;-59
2024/04/25 08:17:53;;;;;;;0.73;0.47;;;;;;;21.99;43.13;98604.41;7396885;19;20018;-59
2024/04/25 08:20:20;;;;;;;3.13;1.63;;;;;;;21.70;44.03;98595.66;7396004;19;20482;-59
2024/04/25 08:22:47;;;;;;;1.02;0.85;;;;;;;21.77;44.12;98609.72;7394848;19;20011;-59
2024/04/25 08:25:14;;;;;;;1.08;0.82;;;;;;;22.29;42.78;98607.63;7396634;19;20066;-59
2024/04/25 08:27:40;;;;;;;2.42;0.60;;;;;;;22.19;42.84;98601.16;7395871;19;20038;-59
2024/04/25 08:30:06;;;;;;;1.75;1.08;;;;;;;22.01;42.90;98602.50;7397924;19;20017;-59
2024/04/25 08:32:33;;;;;;;1.58;1.05;;;;;;;21.70;43.07;98595.66;7391698;19;20015;-59
2024/04/25 08:34:59;;;;;;;0.60;0.60;;;;;;;21.65;42.93;98605.13;7395545;19;20363;-59
2024/04/25 08:37:25;;;;;;;2.05;1.38;;;;;;;21.54;43.20;98599.97;7399835;19;20015;-59
2024/04/25 08:39:51;;;;;;;0.80;0.80;;;;;;;21.17;43.72;98595.38;7396931;19;20517;-59
2024/04/25 08:42:18;;;;;;;1.65;1.25;;;;;;;20.65;44.28;98598.00;7393847;19;20014;-59
2024/04/25 08:44:46;;;;;;;0.73;0.73;;;;;;;20.65;44.49;98602.91;7394274;19;20014;-59
2024/04/25 08:47:13;;;;;;;0.82;0.82;;;;;;;20.54;44.36;98606.94;7393921;19;20015;-59
2024/04/25 08:49:41;;;;;;;0.88;0.88;;;;;;;20.52;44.83;98603.94;7394556;19;20394;-59
2024/04/25 08:52:08;;;;;;;2.75;0.65;;;;;;;20.42;44.33;98595.31;7392585;19;20431;-59
2024/04/25 08:54:37;;;;;;;6.32;1.05;;;;;;;20.69;44.40;98598.34;7393371;19;20062;-59
2024/04/25 08:57:03;;;;;;;2.38;1.42;;;;;;;20.66;44.81;98599.50;7393902;19;20031;-59
2024/04/25 08:59:29;;;;;;;0.60;0.60;;;;;;;20.65;44.59;98598.00;7394610;19;20007;-59
2024/04/25 09:01:58;;;;;;;0.90;0.88;;;;;;;20.50;45.03;98603.00;7396679;19;20035;-60
2024/04/25 09:04:27;;;;;;;0.98;0.98;;;;;;;20.61;45.57;98588.41;7395390;19;20538;-59
2024/04/25 09:06:53;;;;;;;1.05;0.95;;;;;;;20.97;45.50;98583.81;7396382;19;20011;-59
2024/04/25 09:09:20;;;;;;;0.60;0.60;;;;;;;21.19;45.45;98587.06;7391436;19;20056;-59
2024/04/25 09:11:53;;;;;;;1.38;1.23;;;;;;;21.10;45.54;98586.38;7393063;19;20070;-59
2024/04/25 09:14:20;;;;;;;0.60;0.60;;;;;;;21.04;45.58;98577.38;7394492;19;20102;-60
2024/04/25 09:16:46;;;;;;;0.60;0.60;;;;;;;21.25;45.55;98584.72;7390437;19;20015;-60
2024/04/25 09:19:12;;;;;;;1.10;1.10;;;;;;;21.36;45.10;98578.59;7393969;19;20010;-59
2024/04/25 09:21:38;;;;;;;2.80;1.25;;;;;;;21.55;45.26;98584.47;7394099;19;20498;-60
2024/04/25 09:24:08;;;;;;;0.57;0.57;;;;;;;22.21;45.14;98569.34;7392880;19;20359;-60
2024/04/25 09:26:34;;;;;;;0.95;0.82;;;;;;;22.31;45.81;98568.06;7390450;19;20018;-60
2024/04/25 09:29:01;;;;;;;0.85;0.82;;;;;;;22.17;45.15;98564.13;7394112;19;20346;-60
2024/04/25 09:31:27;;;;;;;0.80;0.80;;;;;;;22.35;45.40;98568.38;7394489;19;20011;-59
2024/04/25 09:33:56;;;;;;;1.50;0.38;;;;;;;22.35;43.72;98567.66;7393998;19;20047;-59
2024/04/25 09:36:22;;;;;;;0.95;0.82;;;;;;;22.30;44.55;98566.59;7391927;19;20034;-60
2024/04/25 09:38:50;;;;;;;0.35;0.35;;;;;;;22.29;43.77;98565.06;7392947;19;20017;-59
2024/04/25 09:41:18;;;;;;;8.82;0.90;;;;;;;22.47;43.51;98562.94;7393948;19;20021;-59
2024/04/25 09:43:44;;;;;;;3.22;0.70;;;;;;;22.37;42.92;98559.31;7391905;19;20018;-59
2024/04/25 09:46:15;;;;;;;2.20;1.00;;;;;;;22.67;42.45;98553.22;7393249;19;20169;-59
2024/04/25 09:48:46;;;;;;;1.65;0.90;;;;;;;22.76;43.00;98560.28;7392741;19;20018;-59
2024/04/25 09:51:16;;;;;;;0.20;0.20;;;;;;;22.69;42.68;98555.47;7392896;19;20030;-59
2024/04/25 09:53:56;;;;;;;5.60;1.30;;;;;;;23.06;42.13;98554.09;7392560;19;20066;-59
2024/04/25 09:56:27;;;;;;;0.57;0.57;;;;;;;22.82;42.55;98547.31;7394388;19;20015;-59
2024/04/25 09:59:19;;;;;;;0.68;0.68;;;;;;;22.84;42.20;98543.88;7392199;19;20014;-59
2024/04/25 10:04:19;;;;;;;2.88;0.65;;;;;;;22.52;41.75;98525.03;7390644;19;20029;-91
2024/04/25 10:06:46;;;;;;;0.77;0.38;;;;;;;22.44;42.05;98533.66;7394508;19;20046;-92
2024/04/25 10:09:13;;;;;;;0.70;0.68;;;;;;;22.48;41.90;98541.75;7390752;19;20379;-92
2024/04/25 10:11:39;;;;;;;0.75;0.75;;;;;;;22.33;42.41;98539.09;7393148;19;20042;-90
2024/04/25 10:14:05;;;;;;;3.50;1.45;;;;;;;22.25;42.17;98532.81;7392382;19;20026;-93
2024/04/25 10:16:31;;;;;;;0.68;0.65;;;;;;;22.22;41.80;98534.00;7389837;19;20018;-93
2024/04/25 10:18:57;;;;;;;15.23;1.10;;;;;;;22.21;42.10;98533.25;7392880;19;20025;-93
2024/04/25 10:21:23;;;;;;;1.35;1.17;;;;;;;22.02;42.37;98521.78;7393188;19;20014;-93
2024/04/25 10:23:52;;;;;;;1.20;0.73;;;;;;;22.06;42.21;98530.59;7389270;19;20026;-92
2024/04/25 10:26:19;;;;;;;3.95;0.98;;;;;;;21.98;42.10;98534.88;7392181;19;20058;-93
2024/04/25 10:29:00;;;;;;;0.32;0.32;;;;;;;22.15;41.55;98535.59;7391951;19;20011;-92
2024/04/25 10:31:35;;;;;;;0.30;0.30;;;;;;;21.93;41.72;98522.47;7393900;19;20423;-91
2024/04/25 10:34:01;;;;;;;0.52;0.52;;;;;;;21.96;42.06;98526.94;7391619;19;20509;-94
2024/04/25 10:36:28;;;;;;;1.27;1.20;;;;;;;21.78;42.23;98531.13;7391654;19;20006;-90
2024/04/25 10:38:57;;;;;;;0.77;0.60;;;;;;;21.86;42.80;98531.81;7390357;19;20022;-91
2024/04/25 10:41:38;;;;;;;0.95;0.68;;;;;;;21.80;43.11;98529.19;7390803;19;20022;-90
2024/04/25 10:44:09;;;;;;;7.72;1.48;;;;;;;21.69;43.79;98526.13;7389227;19;20015;-90
2024/04/25 10:46:36;;;;;;;1.48;1.38;;;;;;;21.98;44.48;98521.47;7389985;19;20014;-91
2024/04/25 10:49:07;;;;;;;1.55;0.82;;;;;;;22.18;44.84;98527.97;7395147;19;20025;-92
2024/04/25 10:51:38;;;;;;;0.38;0.38;;;;;;;22.30;45.04;98526.88;7394852;19;20015;-90
2024/04/25 10:54:05;;;;;;;0.80;0.77;;;;;;;22.57;45.32;98524.75;7394488;19;20018;-92
2024/04/25 10:56:31;;;;;;;0.77;0.77;;;;;;;22.74;44.65;98521.13;7397919;19;20033;-67
2024/04/25 10:58:58;;;;;;;0.60;0.52;;;;;;;23.09;45.23;98515.97;7392950;19;20031;-68
2024/04/25 11:01:25;;;;;;;1.85;0.70;;;;;;;23.09;44.42;98508.22;7395183;19;20010;-67
2024/04/25 11:03:55;;;;;;;0.82;0.52;;;;;;;23.31;44.22;98512.00;7395928;19;20011;-68
2024/04/25 11:06:22;;;;;;;1.10;0.35;;;;;;;23.57;44.47;98510.38;7397914;19;20018;-68
2024/04/25 11:08:48;;;;;;;0.38;0.38;;;;;;;23.90;44.24;98509.34;7398508;19;20011;-68
2024/04/25 11:11:15;;;;;;;0.90;0.63;;;;;;;24.29;44.72;98497.91;7396296;19;20007;-68
2024/04/25 11:13:42;;;;;;;0.80;0.80;;;;;;;24.41;42.99;98498.75;7395190;19;20039;-68
2024/04/25 11:16:08;;;;;;;1.00;0.63;;;;;;;24.32;42.96;98497.44;7393545;19;20037;-68
2024/04/25 11:18:35;;;;;;;0.50;0.50;;;;;;;24.27;42.33;98497.75;7402134;19;20014;-67
2024/04/25 11:21:02;;;;;;;0.40;0.38;;;;;;;24.32;41.90;98503.13;7398811;19;20061;-67
2024/04/25 11:23:31;;;;;;;0.38;0.38;;;;;;;23.98;41.92;98495.69;7398547;19;20040;-67
2024/04/25 11:26:02;;;;;;;1.00;0.60;;;;;;;23.73;41.47;98503.06;7399315;19;20481;-67
2024/04/25 11:28:28;;;;;;;1.33;0.30;;;;;;;23.64;41.46;98498.88;7399097;19;20025;-67
2024/04/25 11:30:56;;;;;;;0.90;0.60;;;;;;;23.65;40.90;98499.63;7402248;19;20002;-67
2024/04/25 11:33:24;;;;;;;1.52;0.47;;;;;;;23.87;41.15;98493.47;7396593;19;20104;-67
2024/04/25 11:35:50;;;;;;;0.30;0.20;;;;;;;23.70;41.06;98501.41;7396568;19;20039;-67
2024/04/25 11:38:17;;;;;;;5.05;0.40;;;;;;;23.57;40.27;98490.50;7397182;19;20050;-67
2024/04/25 11:40:47;;;;;;;1.75;0.40;;;;;;;23.62;40.33;98495.13;7397704;19;20011;-67
2024/04/25 11:43:15;;;;;;;11.55;0.88;;;;;;;23.43;40.20;98481.69;7396736;19;20015;-67
2024/04/25 11:45:45;;;;;;;0.50;0.50;;;;;;;23.28;40.64;98485.50;7397692;19;20010;-67